Aérodrome :
LOGIN :

S'inscrire | Disclaimer

   EN    FR    IT 

 










Légende :    VFR   VFR Marginal   IFR   IFR Intensif   IFR Très Intensif
Visi : 
Plafond : 
>= 8 km
>= 3000ft
5 à 8 km
1000 à 3000 ft
1500m à 5 km
500 à 1000 ft
800 à 1500m
200 à 500 ft
< 800m
< 200 ft
Symboles :   Orages  Brouillard  Fortes neiges  Fortes précipitations  Vent > 20 kt
SIGMETs :   Divers  Orages  Givrage  Turbulence  Onde Orograph.  Cendres Volcan.







- Altitude de l'aérodrome : 160 ft
- Code IATA : LRT
- Voir les cartes d'approche


LFRH - Lorient Lann Bihoue

DERNIER METAR :
  • 211500Z AUTO 17007KT CAVOK 22/14 Q1016 NOSIG

METARs EXPIRÉS :
  • 211430Z AUTO 16010KT CAVOK 21/14 Q1016 NOSIG
  • 211400Z AUTO 14010KT 120V180 CAVOK 22/13 Q1016 NOSIG
  • 211330Z AUTO 14010KT CAVOK 22/14 Q1017 NOSIG
  • 211300Z AUTO 15010KT CAVOK 22/13 Q1017 NOSIG
  • 211230Z AUTO 14007KT CAVOK 23/13 Q1017 NOSIG

TAF TAF LFRH
Valide du 21 à 12h jusqu'au 22 à 12h UTC


211100Z 2112/2212 18005KT CAVOK
TEMPO 2112/2118 18010G20KT
PROB30 2201/2206 0500 BCFG OVC002
PROB30 2206/2209 1000 BCFG OVC004
BECMG 2210/2212 20010G20KT BKN010
Pas de NOTAMs connus pour ce terrain.



MET'MAP, la Météo Aéronautique d'un coup d'oeil ! - Copyright ORBIFLY Décembre 2007 - Disclaimer

ORBIFLY MET'MAP TEAM :

Programmation & Développement : Alexandra Zaïnal
Conception & Développement : Baudouin d'Aumeries
Co-Programmation & Développement : Marc-Olivier Méhu
Soutien technique & logistique : Manuel Goepfert

Contact : metmap@orbifly.com




SOURCES & CREDITS :

   NOAA